Portada
METAR-TAF:

METAR-TAF

Aeroports :

Fairbanks, Alaska, Estats Units d'Amèrica

latitud: 64-48-14N, longitud: 147-52-34W, altitud: 132 m

Observació

L'informe es va fer fa 55 minuts, a les 02:53 UTC
Vent calma
Temperatura -15°C
Humitat 78%
Pressió 986 hPa
Visibilitat: 16.1 km
Escasses núvols a una alçada de 7000 ft
Cel ennuvolat a una alçada de 13000 ft
Cel ennuvolat a una alçada de 20000 ft

METAR: PAFA 210253Z 00000KT 10SM FEW070 BKN130 BKN200 M15/M18 A2911 RMK AO2 SLP870 I3000 T11501178 58012

Hora: 18:48 (03:48 UTC)

Pronòstic

L'informe es va fer fa 4 hores i 28 minuts, a les 23:20 UTC
Pronòstic vàlid del 21 a les 00 UTC al 22 a les 06 UTC
Vent kt del Nord
Visibilitat: 10 km
Escasses núvols a una alçada de 3000 ft
Cel ennuvolat a una alçada de 5000 ft
Cel ennuvolat a una alçada de 10000 ft

TAF: PAFA 202320Z 2100/2206 00000KT P6SM FEW030 BKN050 BKN100

Observacions i pronòstics meteorològics de més de 4000 aeroports (METAR i TAF).

Les estacions disponibles són els punts grocs i vermells al mapa.

Posi el ratolí al punt desitjat per veure el nom de l'estació.

Feu clic per veure les observacions i els pronòstics meteorològics.

Per canviar el mapa: feu clic els botons verds amb una creu de color negre per apropar; al botó verd amb un guió per allunyar la imatge; o en les fletxes verdes per a mapes adjacents.


METAR-TAF: